ADDS METAR Data INFO
IDs: Format: Raw Decoded Include TAF

Data at: 1538 UTC 25 Feb 2018

KAJZ 251535Z AUTO 15003KT 10SM BKN015 M03/M06 A3012 RMK AO2 T10331060
KAJZ 251515Z AUTO 00000KT 10SM OVC013 M04/M06 A3011 RMK AO2 T10381060
KAJZ 251455Z AUTO 14003KT 10SM SCT007 OVC013 M04/M06 A3010 RMK AO2 T10451062
KAJZ 251435Z AUTO 04003KT 10SM OVC007 M05/M07 A3008 RMK AO2 T10521066
KAJZ 251415Z AUTO 00000KT 10SM OVC007 M06/M07 A3007 RMK AO2 T10561070
KAJZ 251355Z AUTO 09004KT 7SM BKN007 BKN021 OVC055 M06/M07 A3006 RMK AO2 T10601073
KAJZ 251335Z AUTO 00000KT 1 1/4SM -SN BKN005 OVC010 M05/M06 A3005 RMK AO2 T10521065
KAJZ 251315Z AUTO 00000KT 3SM -SN SCT010 BKN019 OVC028 M04/M06 A3004 RMK AO2 T10451058
KAJZ 251255Z AUTO 00000KT 4SM -SN SCT018 BKN028 OVC037 M05/M06 A3003 RMK AO2 T10491063
KAJZ 251235Z AUTO 00000KT 5SM -SN SCT007 BKN020 OVC035 M05/M06 A3002 RMK AO2 T10501064
KAJZ 251215Z AUTO 00000KT 1 3/4SM -SN BKN006 OVC009 M05/M06 A3001 RMK AO2 T10491065
KAJZ 251155Z AUTO 00000KT 10SM SCT014 BKN029 OVC050 M05/M07 A3001 RMK AO2 T10531072 11012 21065
KAJZ 251135Z AUTO 32003KT 10SM SCT050 SCT055 M06/M08 A3000 RMK AO2 T10601076
KAJZ 251115Z AUTO 21003KT 10SM CLR M06/M08 A2998 RMK AO2 T10621081
KAJZ 251055Z AUTO 00000KT 10SM CLR M05/M08 A2998 RMK AO2 T10521078
KAJZ 251035Z AUTO 35003KT 10SM CLR M06/M08 A2998 RMK AO2 T10601085
KAJZ 251015Z AUTO 33005KT 10SM CLR M06/M08 A2997 RMK AO2 T10571083
KAJZ 250955Z AUTO 35004KT 10SM CLR M06/M08 A2997 RMK AO2 T10601081
KAJZ 250935Z AUTO 02004KT 10SM CLR M06/M08 A2997 RMK AO2 T10581080
KAJZ 250915Z AUTO 36004KT 10SM CLR M05/M08 A2997 RMK AO2 T10551079
KAJZ 250855Z AUTO 01005KT 10SM CLR M05/M07 A2997 RMK AO2 T10471071
KAJZ 250835Z AUTO 36005KT 10SM CLR M04/M07 A2997 RMK AO2 T10421068
KAJZ 250815Z AUTO 04006KT 10SM CLR M04/M06 A2997 RMK AO2 T10371065
KAJZ 250755Z AUTO 04005KT 10SM CLR M03/M06 A2997 RMK AO2 T10331063
KAJZ 250735Z AUTO 05007KT 10SM SCT065 M03/M06 A2998 RMK AO2 T10301061
KAJZ 250715Z AUTO 06005KT 10SM SCT065 M03/M06 A2998 RMK AO2 T10281060
KAJZ 250655Z AUTO 07006KT 10SM SCT075 M02/M06 A2997 RMK AO2 T10241059
KAJZ 250635Z AUTO 08007KT 10SM BKN075 M02/M06 A2996 RMK AO2 T10171063
KAJZ 250615Z AUTO 04006KT 10SM BKN050 BKN065 OVC075 M01/M06 A2996 RMK AO2 T10151065
KAJZ 250555Z AUTO 03007KT 10SM OVC050 M01/M07 A2996 RMK AO2 T10111067 10020 21011 400351056
KAJZ 250535Z AUTO 03004KT 10SM OVC050 00/M09 A2997 RMK AO2 T10021088
KAJZ 250515Z AUTO 36003KT 10SM OVC050 00/M10 A2996 RMK AO2 T00001104
KAJZ 250455Z AUTO 00000KT 10SM OVC050 00/M11 A2996 RMK AO2 T00001114
KAJZ 250435Z AUTO 00000KT 10SM SCT047 OVC050 00/M12 A2996 RMK AO2 T00021119
KAJZ 250415Z AUTO 00000KT 10SM OVC050 00/M13 A2996 RMK AO2 T00031130
KAJZ 250355Z AUTO 00000KT 10SM OVC050 00/M13 A2996 RMK AO2 T00021128
KAJZ 250335Z AUTO 00000KT 10SM OVC060 00/M13 A2996 RMK AO2 T00021135
KAJZ 250315Z AUTO 00000KT 10SM OVC060 00/M13 A2995 RMK AO2 T00031135
KAJZ 250255Z AUTO 00000KT 10SM BKN070 OVC085 01/M14 A2996 RMK AO2 T00051140
KAJZ 250235Z AUTO 23004KT 10SM SCT060 BKN070 OVC080 01/M14 A2996 RMK AO2 T00061141
KAJZ 250215Z AUTO 22007KT 10SM SCT055 OVC065 01/M14 A2995 RMK AO2 T00061144
KAJZ 250155Z AUTO 21008KT 10SM OVC075 01/M15 A2995 RMK AO2 T00061148
KAJZ 250135Z AUTO 20011G16KT 10SM BKN075 OVC085 01/M15 A2995 RMK AO2 T00071151
KAJZ 250115Z AUTO 20010G16KT 10SM OVC085 01/M15 A2994 RMK AO2 T00101155
KAJZ 250055Z AUTO 22009KT 10SM SCT075 BKN095 OVC120 02/M16 A2994 RMK AO2 T00151156
KAJZ 250035Z AUTO 22003KT 10SM SCT075 OVC120 02/M16 A2993 RMK AO2 T00161159
KAJZ 250015Z AUTO 00000KT 10SM SCT075 BKN120 02/M16 A2993 RMK AO2 T00171160
KAJZ 242355Z AUTO 21003KT 10SM BKN075 02/M16 A2994 RMK AO2 T00201161 10035 21002
KAJZ 242335Z AUTO 27008KT 10SM CLR 02/M16 A2994 RMK AO2 T00201164
KAJZ 242315Z AUTO 28006KT 10SM CLR 03/M16 A2994 RMK AO2 T00261163
KAJZ 242255Z AUTO 23006KT 10SM CLR 03/M17 A2995 RMK AO2 T00321167
KAJZ 242235Z AUTO 25003KT 10SM SCT070 03/M17 A2995 RMK AO2 T00261167
KAJZ 242215Z AUTO 29006KT 10SM SCT070 03/M17 A2996 RMK AO2 T00341169
KAJZ 242155Z AUTO 24006KT 10SM SCT060 SCT070 03/M17 A2996 RMK AO2 T00291171
KAJZ 242135Z AUTO 30003KT 10SM SCT070 02/M17 A2997 RMK AO2 T00231170
KAJZ 242115Z AUTO 00000KT 10SM SCT065 SCT080 02/M17 A2999 RMK AO2 T00231172
KAJZ 242055Z AUTO 00000KT 10SM SCT065 SCT080 01/M18 A3000 RMK AO2 T00101180
KAJZ 242035Z AUTO 25005KT 10SM CLR 01/M18 A3002 RMK AO2 T00141180
KAJZ 242015Z AUTO 30007KT 10SM CLR 02/M18 A3003 RMK AO2 T00191185
KAJZ 241955Z AUTO 29003KT 10SM CLR 01/M18 A3004 RMK AO2 T00111182
KAJZ 241935Z AUTO 30007G15KT 10SM CLR 01/M18 A3005 RMK AO2 T00131178
KAJZ 241915Z AUTO 23007KT 200V270 10SM CLR 01/M19 A3006 RMK AO2 T00121190
KAJZ 241855Z AUTO 23008KT 10SM CLR 01/M17 A3007 RMK AO2 T00091174
KAJZ 241835Z AUTO 29006KT 10SM CLR 00/M15 A3008 RMK AO2 T00041155
KAJZ 241815Z AUTO 26005KT 10SM CLR 00/M16 A3008 RMK AO2 T00011156
KAJZ 241755Z AUTO 28009G14KT 10SM CLR 00/M16 A3008 RMK AO2 T10011156 10000 21056
KAJZ 241735Z AUTO 28007KT 10SM CLR M01/M16 A3008 RMK AO2 T10071161
KAJZ 241715Z AUTO 25010KT 10SM CLR M01/M13 A3008 RMK AO2 T10111132
KAJZ 241655Z AUTO 25008KT 10SM CLR M02/M13 A3008 RMK AO2 T10161133
KAJZ 241635Z AUTO 24009KT 10SM CLR M02/M13 A3008 RMK AO2 T10201129
KAJZ 241615Z AUTO 22011G16KT 10SM CLR M02/M12 A3008 RMK AO2 T10231125
KAJZ 241555Z AUTO 22012KT 10SM CLR M03/M12 A3008 RMK AO2 T10281119
KAJZ 241535Z AUTO 24011KT 10SM CLR M03/M12 A3007 RMK AO2 T10351122
KAJZ 241515Z AUTO 24014KT 10SM CLR M04/M12 A3007 RMK AO2 T10421122
KAJZ 241455Z AUTO 24008KT 10SM CLR M05/M12 A3006 RMK AO2 T10481124
KAJZ 241435Z AUTO 24007KT 10SM CLR M05/M13 A3005 RMK AO2 T10541126
KAJZ 241415Z AUTO 25011G17KT 10SM CLR M05/M12 A3005 RMK AO2 T10531124
KAJZ 241355Z AUTO 25011KT 10SM CLR M05/M12 A3003 RMK AO2 T10551116
KAJZ 241335Z AUTO 26010KT 10SM CLR M05/M11 A3003 RMK AO2 T10531115
KAJZ 241315Z AUTO 25014G17KT 10SM CLR M05/M12 A3002 RMK AO2 T10471116
KAJZ 241255Z AUTO 28013KT 10SM CLR M04/M12 A3001 RMK AO2 T10381120
KAJZ 241235Z AUTO 26013G18KT 10SM CLR M04/M11 A3000 RMK AO2 T10401109
KAJZ 241215Z AUTO 28011G22KT 10SM CLR M04/M11 A2999 RMK AO2 T10381109
KAJZ 241155Z AUTO 26014G18KT 10SM CLR M04/M10 A2998 RMK AO2 T10371103 11018 21045
KAJZ 241135Z AUTO 28012KT 10SM CLR M03/M10 A2998 RMK AO2 T10351103
KAJZ 241115Z AUTO 27009G14KT 10SM CLR M03/M10 A2998 RMK AO2 T10351100
KAJZ 241055Z AUTO 28011KT 10SM CLR M03/M09 A2998 RMK AO2 T10301093
KAJZ 241035Z AUTO 28011G20KT 10SM SCT060 M02/M09 A2997 RMK AO2 T10251091
KAJZ 241015Z AUTO 28011KT 10SM SCT050 BKN060 M02/M09 A2997 RMK AO2 T10241087
KAJZ 240955Z AUTO 29012KT 10SM SCT050 M02/M08 A2997 RMK AO2 T10251079
KAJZ 240935Z AUTO 24005KT 10SM CLR M04/M07 A2997 RMK AO2 T10391071
KAJZ 240915Z AUTO 24003KT 10SM CLR M03/M06 A2997 RMK AO2 T10301059
KAJZ 240855Z AUTO 00000KT 10SM CLR M04/M06 A2997 RMK AO2 T10431057
KAJZ 240835Z AUTO 34003KT 10SM CLR M04/M05 A2997 RMK AO2 T10381053
KAJZ 240815Z AUTO 34003KT 10SM SCT120 M04/M05 A2996 RMK AO2 T10401053
KAJZ 240755Z AUTO 34004KT 10SM SCT120 M04/M06 A2996 RMK AO2 T10401057
KAJZ 240735Z AUTO 00000KT 10SM CLR M04/M06 A2996 RMK AO2 T10411060
KAJZ 240715Z AUTO 00000KT 10SM SCT100 M04/M06 A2996 RMK AO2 T10381058
KAJZ 240655Z AUTO 00000KT 10SM SCT100 M03/M05 A2996 RMK AO2 T10291052
KAJZ 240635Z AUTO 00000KT 10SM OVC110 M02/M05 A2996 RMK AO2 T10231047
KAJZ 240615Z AUTO 00000KT 10SM SCT080 OVC110 M02/M05 A2996 RMK AO2 T10201046
KAJZ 240555Z AUTO 22004KT 10SM OVC070 M02/M04 A2996 RMK AO2 T10171043 10016 21020 400421025
KAJZ 240535Z AUTO 00000KT 10SM SCT007 BKN060 OVC070 M02/M04 A2997 RMK AO2 T10201036
KAJZ 240515Z AUTO 24004KT 10SM OVC060 M02/M03 A2997 RMK AO2 T10171035
KAJZ 240455Z AUTO 23009KT 10SM SCT040 BKN050 OVC070 M02/M04 A2997 RMK AO2 T10161039
KAJZ 240435Z AUTO 25007KT 7SM -SN SCT029 BKN034 OVC070 M02/M04 A2997 RMK AO2 T10161040
KAJZ 240415Z AUTO 26004KT 7SM -SN SCT007 BKN031 OVC041 M01/M03 A2998 RMK AO2 T10131035
KAJZ 240355Z AUTO 32007KT 10SM SCT022 BKN040 OVC060 00/M04 A2998 RMK AO2 T10021042